Time;durP1;ratioP1;P1;durP2;ratioP2;P2;SDS_P1;SDS_P2;PMS_P1;PMS_P2;Temp;Humidity;BMP_temperature;BMP_pressure;BME280_temperature;BME280_humidity;BME280_pressure;Samples;Min_cycle;Max_cycle;Signal;HPM_P1;HPM_P2
2023/01/28 00:03:19;;;;;;;12.73;8.83;;;;;;;;;;10509827;28;20032;-76
2023/01/28 00:08:20;;;;;;;13.30;9.25;;;;;;;;;;10510267;28;20266;-69
2023/01/28 00:13:20;;;;;;;15.10;8.52;;;;;;;;;;10479914;28;20042;-71
2023/01/28 00:18:20;;;;;;;13.98;9.40;;;;;;;;;;10488333;28;20028;-70
2023/01/28 00:23:20;;;;;;;16.00;10.70;;;;;;;;;;10509434;28;20038;-70
2023/01/28 00:28:21;;;;;;;14.48;10.05;;;;;;;;;;10508847;28;20055;-70
2023/01/28 00:33:21;;;;;;;15.35;9.15;;;;;;;;;;10482189;28;20033;-70
2023/01/28 00:38:22;;;;;;;14.38;9.65;;;;;;;;;;10517747;28;20032;-72
2023/01/28 00:43:22;;;;;;;11.35;7.63;;;;;;;;;;10526516;28;20140;-70
2023/01/28 00:48:22;;;;;;;13.82;9.88;;;;;;;;;;10519958;28;20028;-76
2023/01/28 00:53:22;;;;;;;13.93;9.93;;;;;;;;;;10507861;28;20023;-70
2023/01/28 00:58:23;;;;;;;15.27;8.85;;;;;;;;;;10507849;28;20059;-71
2023/01/28 01:03:23;;;;;;;13.45;9.48;;;;;;;;;;10507428;28;20092;-71
2023/01/28 01:08:33;;;;;;;11.88;8.85;;;;;;;;;;10507412;28;20024;-71
2023/01/28 01:13:33;;;;;;;14.73;8.45;;;;;;;;;;10527087;28;20580;-70
2023/01/28 01:18:34;;;;;;;14.20;9.00;;;;;;;;;;10490530;28;20023;-73
2023/01/28 01:23:35;;;;;;;15.48;9.18;;;;;;;;;;10506774;28;20409;-70
2023/01/28 01:28:35;;;;;;;14.15;7.95;;;;;;;;;;10507101;28;20048;-69
2023/01/28 01:33:36;;;;;;;14.85;8.77;;;;;;;;;;10506369;28;20036;-76
2023/01/28 01:38:36;;;;;;;15.90;9.90;;;;;;;;;;10506157;28;20059;-73
2023/01/28 01:43:46;;;;;;;12.93;9.90;;;;;;;;;;10506707;28;20155;-68
2023/01/28 01:48:46;;;;;;;15.00;8.50;;;;;;;;;;10506644;28;20386;-74
2023/01/28 01:53:48;;;;;;;12.65;9.05;;;;;;;;;;10524583;28;20028;-68
2023/01/28 01:58:50;;;;;;;13.13;9.07;;;;;;;;;;10490397;28;20020;-68
2023/01/28 02:03:59;;;;;;;14.23;9.05;;;;;;;;;;10480970;28;20456;-73
2023/01/28 02:09:00;;;;;;;12.35;8.55;;;;;;;;;;10514352;28;20020;-72
2023/01/28 02:14:02;;;;;;;14.05;8.82;;;;;;;;;;10514515;28;20437;-71
2023/01/28 02:19:02;;;;;;;13.68;8.85;;;;;;;;;;10526530;28;20443;-78
2023/01/28 02:24:24;;;;;;;16.75;9.00;;;;;;;;;;10491457;28;20024;-72
2023/01/28 02:29:33;;;;;;;13.18;9.85;;;;;;;;;;10513092;28;20514;-72
2023/01/28 02:34:39;;;;;;;13.63;10.15;;;;;;;;;;10531760;28;20016;-71
2023/01/28 02:39:45;;;;;;;18.13;9.70;;;;;;;;;;10485491;28;20440;-75
2023/01/28 02:44:45;;;;;;;11.95;8.63;;;;;;;;;;10471444;28;20406;-75
2023/01/28 02:49:50;;;;;;;15.63;9.37;;;;;;;;;;10517003;28;20026;-71
2023/01/28 02:55:07;;;;;;;15.25;9.52;;;;;;;;;;10512371;28;20262;-74
2023/01/28 03:00:15;;;;;;;16.65;9.43;;;;;;;;;;10510932;28;20016;-73
2023/01/28 03:05:15;;;;;;;;;;;;;;;;;;10429734;28;20029;-72
2023/01/28 03:10:17;;;;;;;11.87;8.13;;;;;;;;;;10482252;28;19905;-70
2023/01/28 03:36:52;;;;;;;15.65;10.02;;;;;;;;;;10538580;28;20032;-68
2023/01/28 03:41:56;;;;;;;16.10;10.23;;;;;;;;;;10513054;28;20023;-76
2023/01/28 03:46:57;;;;;;;14.35;9.73;;;;;;;;;;10510597;28;20422;-73
2023/01/28 03:51:57;;;;;;;12.95;8.35;;;;;;;;;;10510319;28;20028;-71
2023/01/28 03:56:57;;;;;;;14.85;8.43;;;;;;;;;;10510196;28;20020;-69
2023/01/28 04:01:57;;;;;;;13.20;9.45;;;;;;;;;;10478865;28;20028;-76
2023/01/28 04:06:58;;;;;;;12.77;8.80;;;;;;;;;;10490580;28;20024;-74
2023/01/28 04:11:58;;;;;;;11.90;8.60;;;;;;;;;;10509988;28;20103;-74
2023/01/28 04:16:59;;;;;;;14.40;9.93;;;;;;;;;;10492536;28;20027;-71
2023/01/28 04:21:59;;;;;;;17.45;9.45;;;;;;;;;;10476285;28;20053;-72
2023/01/28 04:26:59;;;;;;;17.58;11.05;;;;;;;;;;10506123;28;20020;-70
2023/01/28 04:31:59;;;;;;;11.60;8.07;;;;;;;;;;10526388;28;20074;-77
2023/01/28 04:37:00;;;;;;;14.23;9.75;;;;;;;;;;10508282;28;20131;-74
2023/01/28 04:42:00;;;;;;;12.80;10.43;;;;;;;;;;10508605;28;20032;-69
2023/01/28 04:47:00;;;;;;;12.52;9.60;;;;;;;;;;10508915;28;20032;-74
2023/01/28 04:52:00;;;;;;;13.88;9.68;;;;;;;;;;10507877;28;20505;-72
2023/01/28 04:57:01;;;;;;;13.88;10.27;;;;;;;;;;10508469;28;20432;-71
2023/01/28 05:02:01;;;;;;;15.02;9.85;;;;;;;;;;10526571;28;20492;-75
2023/01/28 05:07:01;;;;;;;15.75;9.05;;;;;;;;;;10507627;28;20084;-69
2023/01/28 05:12:02;;;;;;;14.52;9.48;;;;;;;;;;10487226;28;20028;-75
2023/01/28 05:17:02;;;;;;;13.70;9.60;;;;;;;;;;10517641;28;20489;-71
2023/01/28 05:22:02;;;;;;;18.77;10.25;;;;;;;;;;10491895;28;20027;-72
2023/01/28 05:27:02;;;;;;;16.95;10.02;;;;;;;;;;10524418;28;20023;-70
2023/01/28 05:32:03;;;;;;;15.75;10.93;;;;;;;;;;10490726;28;20049;-71
2023/01/28 05:37:03;;;;;;;14.52;9.88;;;;;;;;;;10476673;28;20438;-76
2023/01/28 05:42:03;;;;;;;12.32;10.23;;;;;;;;;;10506295;28;20024;-72
2023/01/28 05:47:04;;;;;;;14.63;9.67;;;;;;;;;;10507257;28;20080;-71
2023/01/28 05:52:04;;;;;;;15.73;10.38;;;;;;;;;;10492920;28;20111;-71
2023/01/28 05:57:04;;;;;;;13.38;8.98;;;;;;;;;;10475483;28;20024;-71
2023/01/28 06:02:04;;;;;;;12.68;9.52;;;;;;;;;;10465628;28;20039;-74
2023/01/28 06:07:05;;;;;;;12.82;10.45;;;;;;;;;;10481608;28;20512;-75
2023/01/28 06:12:05;;;;;;;16.00;9.77;;;;;;;;;;10478541;28;20362;-72
2023/01/28 06:17:05;;;;;;;12.98;9.90;;;;;;;;;;10462282;28;20568;-72
2023/01/28 06:22:06;;;;;;;18.20;11.15;;;;;;;;;;10464364;28;20024;-71
2023/01/28 06:27:06;;;;;;;13.97;10.70;;;;;;;;;;10441008;28;20033;-73
2023/01/28 06:32:06;;;;;;;15.50;9.30;;;;;;;;;;10505149;28;20052;-73
2023/01/28 06:37:07;;;;;;;14.25;9.75;;;;;;;;;;10488517;28;20115;-76
2023/01/28 06:42:07;;;;;;;19.23;11.00;;;;;;;;;;10473746;28;20028;-73
2023/01/28 06:47:08;;;;;;;15.05;9.82;;;;;;;;;;10504675;28;20024;-77
2023/01/28 06:52:08;;;;;;;14.82;10.50;;;;;;;;;;10488398;28;20024;-75
2023/01/28 06:57:09;;;;;;;13.90;9.17;;;;;;;;;;10459170;28;20415;-73
2023/01/28 07:02:10;;;;;;;16.27;11.43;;;;;;;;;;10483793;28;20417;-75
2023/01/28 07:07:10;;;;;;;16.85;10.18;;;;;;;;;;10482605;28;20047;-72
2023/01/28 07:12:10;;;;;;;19.60;9.82;;;;;;;;;;10512119;28;20115;-73
2023/01/28 07:17:10;;;;;;;20.15;9.80;;;;;;;;;;10494932;28;20028;-72
2023/01/28 07:22:11;;;;;;;21.03;11.27;;;;;;;;;;10476916;28;20426;-74
2023/01/28 07:27:11;;;;;;;18.13;11.63;;;;;;;;;;10466915;28;20099;-76
2023/01/28 07:32:11;;;;;;;16.15;9.55;;;;;;;;;;10444842;28;20056;-76
2023/01/28 07:37:11;;;;;;;18.98;12.57;;;;;;;;;;10441919;28;20029;-73
2023/01/28 07:42:12;;;;;;;19.65;11.02;;;;;;;;;;10479781;28;20035;-74
2023/01/28 07:47:12;;;;;;;18.15;13.00;;;;;;;;;;10526386;28;20036;-74
2023/01/28 07:52:13;;;;;;;21.95;12.02;;;;;;;;;;10452483;28;20020;-71
2023/01/28 07:57:13;;;;;;;17.42;11.70;;;;;;;;;;10510483;28;20028;-74
2023/01/28 08:02:13;;;;;;;21.77;14.18;;;;;;;;;;10457770;28;20407;-73
2023/01/28 08:07:13;;;;;;;21.33;12.53;;;;;;;;;;10450769;28;20115;-74
2023/01/28 08:12:14;;;;;;;23.75;13.02;;;;;;;;;;10470364;28;20060;-76
2023/01/28 08:17:14;;;;;;;17.83;11.27;;;;;;;;;;10455923;28;20026;-76
2023/01/28 08:22:14;;;;;;;21.85;11.38;;;;;;;;;;10448626;28;20046;-75
2023/01/28 08:27:14;;;;;;;13.13;8.88;;;;;;;;;;10452701;28;20024;-74
2023/01/28 08:32:15;;;;;;;12.60;10.00;;;;;;;;;;10462831;28;20518;-78
2023/01/28 08:37:15;;;;;;;16.33;9.73;;;;;;;;;;10457978;28;20517;-74
2023/01/28 08:42:15;;;;;;;15.35;9.02;;;;;;;;;;10459885;28;20043;-76
2023/01/28 08:47:16;;;;;;;16.63;10.73;;;;;;;;;;10439146;28;20029;-73
2023/01/28 08:52:16;;;;;;;19.33;10.85;;;;;;;;;;10445479;28;20506;-74
2023/01/28 08:57:16;;;;;;;19.13;10.90;;;;;;;;;;10462631;28;20032;-72
2023/01/28 09:02:17;;;;;;;14.82;8.82;;;;;;;;;;10456679;28;20123;-76
2023/01/28 09:07:17;;;;;;;17.20;8.45;;;;;;;;;;10449624;28;20074;-72
2023/01/28 09:12:17;;;;;;;12.93;8.57;;;;;;;;;;10454522;28;20020;-76
2023/01/28 09:17:18;;;;;;;13.45;8.65;;;;;;;;;;10444223;28;20025;-78
2023/01/28 09:22:18;;;;;;;17.00;8.88;;;;;;;;;;10465743;28;20032;-78
2023/01/28 09:27:19;;;;;;;14.18;9.32;;;;;;;;;;10461320;28;20044;-75
2023/01/28 09:32:20;;;;;;;21.25;10.93;;;;;;;;;;10447112;28;20541;-75
2023/01/28 09:37:20;;;;;;;18.13;9.97;;;;;;;;;;10440198;28;20106;-70
2023/01/28 09:42:29;;;;;;;18.83;10.20;;;;;;;;;;10432500;28;20078;-74
2023/01/28 09:47:37;;;;;;;17.98;10.35;;;;;;;;;;10430364;28;20020;-75
2023/01/28 09:52:39;;;;;;;21.33;11.47;;;;;;;;;;10445357;28;20048;-73
2023/01/28 09:57:42;;;;;;;16.23;10.70;;;;;;;;;;10452647;28;20800;-70
2023/01/28 10:03:00;;;;;;;16.73;10.75;;;;;;;;;;10440348;28;20290;-71
2023/01/28 10:08:06;;;;;;;17.83;8.98;;;;;;;;;;10453142;28;20028;-71
2023/01/28 10:13:06;;;;;;;17.25;10.13;;;;;;;;;;10440101;28;20028;-71
2023/01/28 10:18:10;;;;;;;17.92;9.63;;;;;;;;;;10443360;28;20028;-75
2023/01/28 10:23:16;;;;;;;16.75;10.77;;;;;;;;;;10469890;28;20169;-72
2023/01/28 10:28:22;;;;;;;18.88;11.88;;;;;;;;;;10446980;28;20033;-71
2023/01/28 10:33:26;;;;;;;23.63;15.35;;;;;;;;;;10441428;28;20024;-70
2023/01/28 10:38:26;;;;;;;18.52;9.77;;;;;;;;;;10443694;28;20449;-68
2023/01/28 10:43:29;;;;;;;23.17;10.52;;;;;;;;;;10447540;28;20066;-69
2023/01/28 10:48:36;;;;;;;15.68;8.93;;;;;;;;;;10435533;28;20027;-77
2023/01/28 10:53:36;;;;;;;19.42;10.90;;;;;;;;;;10451145;28;20108;-71
2023/01/28 10:58:49;;;;;;;14.47;8.47;;;;;;;;;;10450064;28;20028;-71
2023/01/28 11:03:57;;;;;;;15.30;9.02;;;;;;;;;;10438503;28;20028;-74
2023/01/28 11:08:57;;;;;;;13.77;7.68;;;;;;;;;;10427355;28;20414;-74
2023/01/28 11:14:00;;;;;;;11.57;7.97;;;;;;;;;;10438365;28;20032;-74
2023/01/28 11:19:02;;;;;;;18.85;9.07;;;;;;;;;;10440029;28;20279;-71
2023/01/28 11:24:04;;;;;;;18.63;10.15;;;;;;;;;;10420823;28;20029;-71
2023/01/28 11:29:05;;;;;;;16.15;9.48;;;;;;;;;;10441018;28;20040;-71
2023/01/28 11:34:05;;;;;;;15.80;9.65;;;;;;;;;;10449258;28;20032;-72
2023/01/28 11:39:34;;;;;;;13.65;9.23;;;;;;;;;;10426591;28;20025;-73
2023/01/28 11:44:35;;;;;;;17.90;10.65;;;;;;;;;;10418014;28;20049;-73
2023/01/28 11:49:47;;;;;;;15.17;8.93;;;;;;;;;;10445324;28;20036;-76
2023/01/28 11:54:57;;;;;;;16.48;10.02;;;;;;;;;;10457895;28;20731;-76
2023/01/28 12:00:03;;;;;;;19.08;10.77;;;;;;;;;;10423874;28;20408;-77
2023/01/28 12:05:22;;;;;;;19.38;11.20;;;;;;;;;;10442707;28;20067;-76
2023/01/28 12:10:23;;;;;;;17.77;9.32;;;;;;;;;;10447568;28;20058;-74
2023/01/28 12:15:26;;;;;;;20.52;11.00;;;;;;;;;;10453023;28;20044;-74
2023/01/28 12:20:37;;;;;;;15.80;8.88;;;;;;;;;;10450464;28;20029;-77
2023/01/28 12:25:56;;;;;;;17.55;9.82;;;;;;;;;;10467288;28;20487;-72
2023/01/28 12:30:56;;;;;;;13.32;8.65;;;;;;;;;;10454785;28;20028;-74
2023/01/28 12:36:06;;;;;;;16.58;9.30;;;;;;;;;;10496072;22;20457;-71
2023/01/28 12:41:24;;;;;;;14.15;9.23;;;;;;;;;;10523982;28;20060;-73
2023/01/28 12:46:43;;;;;;;16.50;9.10;;;;;;;;;;10505810;28;20035;-74
2023/01/28 12:51:54;;;;;;;18.40;11.52;;;;;;;;;;10504993;28;20024;-74
2023/01/28 12:56:55;;;;;;;15.75;8.07;;;;;;;;;;10512483;28;20481;-72
2023/01/28 13:02:10;;;;;;;22.95;10.68;;;;;;;;;;10498839;28;20027;-76
2023/01/28 13:07:11;;;;;;;18.38;10.70;;;;;;;;;;10505000;28;20172;-69
2023/01/28 13:12:12;;;;;;;16.73;9.07;;;;;;;;;;10521274;28;20172;-70
2023/01/28 13:17:24;;;;;;;14.00;9.07;;;;;;;;;;10510660;28;20573;-72
2023/01/28 13:22:36;;;;;;;15.80;9.32;;;;;;;;;;10517964;28;20089;-77
2023/01/28 13:27:36;;;;;;;18.58;10.27;;;;;;;;;;10487052;28;20038;-74
2023/01/28 13:32:37;;;;;;;19.33;10.32;;;;;;;;;;10468595;28;20081;-74
2023/01/28 13:37:38;;;;;;;15.75;9.57;;;;;;;;;;10474125;28;20497;-73
2023/01/28 13:42:39;;;;;;;16.70;9.23;;;;;;;;;;10483186;28;20068;-71
2023/01/28 13:47:42;;;;;;;16.13;9.15;;;;;;;;;;10480379;22;20498;-70
2023/01/28 13:52:43;;;;;;;18.92;11.50;;;;;;;;;;10455874;28;20054;-74
2023/01/28 13:57:46;;;;;;;14.25;10.13;;;;;;;;;;10473099;28;20081;-73
2023/01/28 14:03:05;;;;;;;18.23;9.85;;;;;;;;;;10485239;28;20029;-72
2023/01/28 14:08:14;;;;;;;13.82;9.38;;;;;;;;;;10466764;28;20040;-70
2023/01/28 14:13:32;;;;;;;17.52;10.23;;;;;;;;;;10485655;28;20575;-73
2023/01/28 14:18:35;;;;;;;19.58;9.63;;;;;;;;;;10474660;28;20047;-73
2023/01/28 14:23:36;;;;;;;24.63;12.35;;;;;;;;;;10476283;28;20082;-72
2023/01/28 14:28:49;;;;;;;21.33;10.95;;;;;;;;;;10448469;28;20119;-72
2023/01/28 14:33:49;;;;;;;22.90;11.82;;;;;;;;;;10470647;28;20020;-71
2023/01/28 14:38:49;;;;;;;17.50;10.83;;;;;;;;;;10493663;28;20028;-70
2023/01/28 14:43:50;;;;;;;20.05;11.85;;;;;;;;;;10487978;28;20027;-70
2023/01/28 14:49:16;;;;;;;20.05;10.82;;;;;;;;;;10472373;28;20063;-70
2023/01/28 14:54:17;;;;;;;22.10;12.63;;;;;;;;;;10450741;28;20029;-72
2023/01/28 14:59:19;;;;;;;19.70;12.25;;;;;;;;;;10476160;28;20110;-69
2023/01/28 15:04:26;;;;;;;19.98;11.93;;;;;;;;;;10479063;28;20029;-71
2023/01/28 15:09:26;;;;;;;20.23;12.82;;;;;;;;;;10458479;28;20475;-72
2023/01/28 15:14:28;;;;;;;22.17;11.45;;;;;;;;;;10482396;28;20020;-75
2023/01/28 15:19:29;;;;;;;22.98;11.30;;;;;;;;;;10486864;28;20024;-69
2023/01/28 15:24:30;;;;;;;15.68;9.65;;;;;;;;;;10463872;28;20762;-71
2023/01/28 15:29:32;;;;;;;13.48;7.80;;;;;;;;;;10464173;28;20043;-70
2023/01/28 15:34:32;;;;;;;14.75;9.45;;;;;;;;;;10489248;28;20028;-69
2023/01/28 15:39:33;;;;;;;18.65;9.65;;;;;;;;;;10483751;28;20033;-73
2023/01/28 15:44:52;;;;;;;16.95;9.52;;;;;;;;;;10480532;28;20073;-75
2023/01/28 15:49:54;;;;;;;20.60;11.10;;;;;;;;;;10451938;28;20048;-71
2023/01/28 15:54:54;;;;;;;19.17;10.43;;;;;;;;;;10470355;28;20040;-75
2023/01/28 16:00:03;;;;;;;12.23;8.40;;;;;;;;;;10467244;28;20055;-70
2023/01/28 16:05:09;;;;;;;15.23;8.88;;;;;;;;;;10458228;28;20033;-67
2023/01/28 16:10:17;;;;;;;16.77;9.35;;;;;;;;;;10460481;28;20016;-73
2023/01/28 16:15:19;;;;;;;16.95;9.80;;;;;;;;;;10464303;28;20142;-72
2023/01/28 16:20:27;;;;;;;14.98;8.43;;;;;;;;;;10463693;28;20085;-70
2023/01/28 16:25:31;;;;;;;19.20;10.48;;;;;;;;;;10460465;28;20035;-72
2023/01/28 16:30:32;;;;;;;15.45;10.13;;;;;;;;;;10464109;28;20028;-74
2023/01/28 16:35:32;;;;;;;18.00;9.88;;;;;;;;;;10457623;28;20020;-70
2023/01/28 16:40:33;;;;;;;20.13;12.18;;;;;;;;;;10466180;28;20055;-73
2023/01/28 16:45:43;;;;;;;22.52;12.75;;;;;;;;;;10494349;27;20430;-74
2023/01/28 16:50:43;;;;;;;13.50;8.60;;;;;;;;;;10470368;28;20028;-70
2023/01/28 16:55:43;;;;;;;15.43;9.43;;;;;;;;;;10466380;28;20021;-70
2023/01/28 17:00:43;;;;;;;17.52;9.35;;;;;;;;;;10472706;28;20028;-72
2023/01/28 17:05:44;;;;;;;17.98;9.40;;;;;;;;;;10469788;28;20035;-69
2023/01/28 17:10:44;;;;;;;19.33;10.43;;;;;;;;;;10468177;28;20024;-76
2023/01/28 17:15:45;;;;;;;17.00;9.27;;;;;;;;;;10478788;28;20026;-75
2023/01/28 17:20:45;;;;;;;18.45;10.85;;;;;;;;;;10475959;28;20024;-70
2023/01/28 17:25:45;;;;;;;22.05;12.55;;;;;;;;;;10470203;28;20020;-75
2023/01/28 17:30:45;;;;;;;15.80;10.90;;;;;;;;;;10469971;28;20025;-75
2023/01/28 17:35:47;;;;;;;21.52;12.15;;;;;;;;;;10475670;28;20023;-73
2023/01/28 17:40:47;;;;;;;22.17;12.32;;;;;;;;;;10484948;28;20017;-71
2023/01/28 17:45:47;;;;;;;17.90;11.02;;;;;;;;;;10468375;28;20376;-72
2023/01/28 17:50:48;;;;;;;25.37;12.20;;;;;;;;;;10488968;28;20017;-72
2023/01/28 17:55:48;;;;;;;20.05;12.38;;;;;;;;;;10442238;28;20021;-78
2023/01/28 18:00:48;;;;;;;24.77;14.25;;;;;;;;;;10444034;28;20154;-71
2023/01/28 18:05:56;;;;;;;22.47;12.97;;;;;;;;;;10434505;28;20426;-68
2023/01/28 18:10:56;;;;;;;31.40;13.73;;;;;;;;;;10444464;28;20017;-70
2023/01/28 18:15:56;;;;;;;22.38;12.07;;;;;;;;;;10447492;28;20028;-71
2023/01/28 18:21:01;;;;;;;27.67;14.07;;;;;;;;;;10443038;28;20487;-71
2023/01/28 18:26:03;;;;;;;23.75;14.15;;;;;;;;;;10429268;28;20755;-70
2023/01/28 18:31:06;;;;;;;25.67;14.00;;;;;;;;;;10412730;28;20056;-74
2023/01/28 18:36:07;;;;;;;20.30;12.60;;;;;;;;;;10431831;28;20484;-74
2023/01/28 18:41:08;;;;;;;25.35;12.52;;;;;;;;;;10434071;28;20045;-72
2023/01/28 18:46:09;;;;;;;22.08;11.68;;;;;;;;;;10437672;28;20033;-71
2023/01/28 18:51:13;;;;;;;23.30;11.02;;;;;;;;;;10423015;28;20635;-77
2023/01/28 18:56:13;;;;;;;19.55;11.55;;;;;;;;;;10411470;28;20491;-72
2023/01/28 19:01:13;;;;;;;24.23;12.37;;;;;;;;;;10433677;28;20025;-73
2023/01/28 19:06:14;;;;;;;22.23;12.38;;;;;;;;;;10417952;28;20029;-69
2023/01/28 19:11:14;;;;;;;24.25;13.10;;;;;;;;;;10417464;28;20480;-71
2023/01/28 19:16:15;;;;;;;21.90;12.50;;;;;;;;;;10423615;28;20036;-70
2023/01/28 19:21:15;;;;;;;20.90;11.70;;;;;;;;;;10419268;28;20114;-72
2023/01/28 19:26:19;;;;;;;22.23;12.77;;;;;;;;;;10417466;28;20446;-74
2023/01/28 19:31:21;;;;;;;20.23;12.40;;;;;;;;;;10431950;28;20024;-70
2023/01/28 19:36:21;;;;;;;20.80;10.30;;;;;;;;;;10454229;28;20052;-70
2023/01/28 19:41:22;;;;;;;18.17;9.10;;;;;;;;;;10434166;28;20049;-70
2023/01/28 19:46:22;;;;;;;18.67;11.00;;;;;;;;;;10418596;28;20108;-73
2023/01/28 19:51:23;;;;;;;19.70;10.77;;;;;;;;;;10411463;28;20725;-76
2023/01/28 19:56:24;;;;;;;17.50;10.88;;;;;;;;;;10427432;28;20342;-77
2023/01/28 20:01:25;;;;;;;24.52;13.68;;;;;;;;;;10413126;28;20037;-72
2023/01/28 20:06:26;;;;;;;19.73;12.27;;;;;;;;;;10418868;28;20512;-72
2023/01/28 20:11:27;;;;;;;21.60;12.07;;;;;;;;;;10416817;28;20550;-74
2023/01/28 20:16:28;;;;;;;20.20;11.30;;;;;;;;;;10421343;28;20075;-72
2023/01/28 20:21:30;;;;;;;23.15;12.10;;;;;;;;;;10432908;28;20082;-71
2023/01/28 20:26:32;;;;;;;16.00;11.00;;;;;;;;;;10418984;28;20029;-71
2023/01/28 20:31:32;;;;;;;19.02;10.85;;;;;;;;;;10431427;28;20170;-73
2023/01/28 20:36:32;;;;;;;17.33;10.37;;;;;;;;;;10422059;28;20051;-71
2023/01/28 20:41:33;;;;;;;19.90;10.13;;;;;;;;;;10417813;28;20052;-67
2023/01/28 20:46:35;;;;;;;18.13;9.43;;;;;;;;;;10426308;28;20044;-72
2023/01/28 20:51:37;;;;;;;21.42;11.45;;;;;;;;;;10440657;28;20020;-72
2023/01/28 20:56:37;;;;;;;17.55;10.75;;;;;;;;;;10440556;28;20040;-71
2023/01/28 21:01:37;;;;;;;21.23;12.40;;;;;;;;;;10427485;28;20059;-72
2023/01/28 21:06:40;;;;;;;16.50;10.75;;;;;;;;;;10413311;28;20041;-72
2023/01/28 21:11:40;;;;;;;19.10;10.30;;;;;;;;;;10415541;28;20025;-70
2023/01/28 21:16:41;;;;;;;18.90;10.50;;;;;;;;;;10425052;28;20020;-71
2023/01/28 21:21:43;;;;;;;18.33;10.27;;;;;;;;;;10423659;28;20031;-69
2023/01/28 21:26:44;;;;;;;24.63;11.45;;;;;;;;;;10432484;28;21133;-73
2023/01/28 21:31:44;;;;;;;18.55;11.35;;;;;;;;;;10422072;28;20025;-70
2023/01/28 21:36:45;;;;;;;20.05;10.90;;;;;;;;;;10431144;28;20032;-74
2023/01/28 21:41:46;;;;;;;24.07;12.73;;;;;;;;;;10425716;28;20519;-74
2023/01/28 21:46:46;;;;;;;24.67;14.57;;;;;;;;;;10434197;28;20024;-74
2023/01/28 21:51:46;;;;;;;21.40;12.77;;;;;;;;;;10421834;28;20024;-77
2023/01/28 21:56:47;;;;;;;27.70;15.32;;;;;;;;;;10447376;28;20455;-75
2023/01/28 22:01:48;;;;;;;24.08;12.77;;;;;;;;;;10428642;28;20651;-75
2023/01/28 22:06:48;;;;;;;26.25;12.98;;;;;;;;;;10427453;28;20029;-71
2023/01/28 22:11:48;;;;;;;21.97;11.50;;;;;;;;;;10427883;28;20025;-71
2023/01/28 22:16:49;;;;;;;22.75;10.98;;;;;;;;;;10428665;28;20021;-74
2023/01/28 22:21:49;;;;;;;24.45;10.65;;;;;;;;;;10446872;28;20017;-75
2023/01/28 22:26:50;;;;;;;21.38;11.90;;;;;;;;;;10428953;28;20095;-72
2023/01/28 22:31:51;;;;;;;18.63;11.27;;;;;;;;;;10428762;28;20124;-76
2023/01/28 22:36:51;;;;;;;22.27;12.07;;;;;;;;;;10405694;28;20116;-72
2023/01/28 22:41:52;;;;;;;23.58;11.75;;;;;;;;;;10394486;28;20064;-70
2023/01/28 22:46:52;;;;;;;29.83;13.23;;;;;;;;;;10410373;28;20411;-70
2023/01/28 22:51:52;;;;;;;29.10;14.45;;;;;;;;;;10427969;28;20107;-71
2023/01/28 22:56:52;;;;;;;24.58;12.30;;;;;;;;;;10427693;28;20024;-77
2023/01/28 23:01:53;;;;;;;24.77;12.30;;;;;;;;;;10427282;28;20094;-70
2023/01/28 23:06:53;;;;;;;25.35;13.35;;;;;;;;;;10425258;28;20351;-74
2023/01/28 23:11:53;;;;;;;25.83;11.52;;;;;;;;;;10427177;28;20024;-74
2023/01/28 23:27:33;;;;;;;24.25;12.38;;;;;;;;;;10444590;28;20029;-74
2023/01/28 23:32:33;;;;;;;24.45;11.73;;;;;;;;;;10424894;28;20410;-75
2023/01/28 23:37:33;;;;;;;17.70;11.18;;;;;;;;;;10409040;28;20025;-71
2023/01/28 23:42:34;;;;;;;25.50;11.40;;;;;;;;;;10425448;28;20041;-71
2023/01/28 23:47:34;;;;;;;22.60;11.85;;;;;;;;;;10443695;28;20025;-76
2023/01/28 23:52:34;;;;;;;18.58;10.30;;;;;;;;;;10425054;28;20140;-71
2023/01/28 23:57:35;;;;;;;22.63;11.57;;;;;;;;;;10442624;28;20093;-68
